createdAt,value
2022-12-28T00:02:22.052Z,1.85
2022-12-28T00:07:22.094Z,2
2022-12-28T00:09:52.123Z,1.54
2022-12-28T00:12:22.115Z,1.37
2022-12-28T00:14:52.151Z,1.69
2022-12-28T00:17:22.173Z,2.1
2022-12-28T00:19:52.184Z,2.23
2022-12-28T00:24:52.256Z,1.67
2022-12-28T00:27:22.283Z,1.68
2022-12-28T00:29:52.276Z,2.01
2022-12-28T00:32:22.331Z,2.22
2022-12-28T00:34:52.381Z,1.96
2022-12-28T00:37:22.362Z,1.83
2022-12-28T00:39:52.381Z,1.58
2022-12-28T00:42:22.412Z,1.45
2022-12-28T00:44:52.450Z,1.93
2022-12-28T00:47:22.440Z,2.51
2022-12-28T00:57:22.546Z,1.79
2022-12-28T00:59:52.581Z,2.12
2022-12-28T01:12:22.707Z,2.05
2022-12-28T01:19:54.170Z,1.4
2022-12-28T01:27:22.826Z,2.34
2022-12-28T01:32:22.891Z,2.11
2022-12-28T01:37:22.924Z,1.77
2022-12-28T01:39:52.961Z,2.03
2022-12-28T01:44:52.995Z,1.65
2022-12-28T01:49:53.044Z,1.58
2022-12-28T01:59:53.138Z,2.06
2022-12-28T02:02:23.470Z,1.8
2022-12-28T02:07:23.215Z,2.08
2022-12-28T02:10:41.316Z,2.14
2022-12-28T02:12:23.257Z,2.46
2022-12-28T02:14:53.287Z,2.42
2022-12-28T02:17:23.318Z,2.53
2022-12-28T02:19:53.337Z,2.11
2022-12-28T02:22:23.347Z,2.25
2022-12-28T02:25:13.009Z,2.69
2022-12-28T02:29:53.484Z,2.08
2022-12-28T02:32:23.450Z,1.99
2022-12-28T02:34:53.465Z,2.12
2022-12-28T02:37:23.502Z,2.18
2022-12-28T02:39:53.551Z,2.25
2022-12-28T02:42:23.541Z,2.06
2022-12-28T02:44:53.547Z,2.19
2022-12-28T02:47:23.593Z,2.37
2022-12-28T02:49:53.608Z,2.19
2022-12-28T02:52:23.641Z,2.69
2022-12-28T02:54:53.667Z,2.55
2022-12-28T02:57:23.683Z,2.37
2022-12-28T03:02:23.956Z,2.17
2022-12-28T03:04:53.758Z,1.91
2022-12-28T03:07:23.777Z,2.05
2022-12-28T03:09:53.789Z,2.47
2022-12-28T03:12:23.867Z,2.66
2022-12-28T03:14:53.858Z,2.38
2022-12-28T03:17:23.866Z,2.15
2022-12-28T03:19:53.894Z,2.04
2022-12-28T03:22:23.906Z,1.99
2022-12-28T03:24:53.944Z,1.99
2022-12-28T03:27:23.965Z,2.16
2022-12-28T03:29:53.993Z,2.37
2022-12-28T03:32:24.030Z,2.68
2022-12-28T03:34:54.049Z,2.59
2022-12-28T03:37:24.045Z,2.05
2022-12-28T03:39:54.100Z,2.14
2022-12-28T03:42:24.118Z,2.22
2022-12-28T03:47:24.144Z,2.02
2022-12-28T03:49:54.192Z,2.04
2022-12-28T03:52:24.207Z,1.64
2022-12-28T03:54:54.245Z,2.17
2022-12-28T03:57:24.267Z,2.01
2022-12-28T03:59:54.281Z,2.07
2022-12-28T04:02:24.433Z,2.13
2022-12-28T04:04:54.329Z,2.04
2022-12-28T04:07:24.333Z,1.86
2022-12-28T04:09:54.375Z,2.06
2022-12-28T04:12:24.390Z,2.25
2022-12-28T04:14:54.420Z,2.3
2022-12-28T04:17:24.418Z,2.22
2022-12-28T04:19:54.552Z,2.49
2022-12-28T04:22:24.494Z,3.21
2022-12-28T04:24:54.503Z,3.37
2022-12-28T04:27:24.534Z,2.66
2022-12-28T04:29:54.556Z,2.64
2022-12-28T04:32:24.590Z,2.73
2022-12-28T04:34:54.595Z,3.51
2022-12-28T04:37:24.617Z,3.6
2022-12-28T04:39:57.393Z,3.46
2022-12-28T04:42:24.688Z,3.55
2022-12-28T04:44:54.707Z,3.23
2022-12-28T04:47:24.726Z,2.7
2022-12-28T04:49:54.764Z,3.16
2022-12-28T04:52:24.781Z,3.32
2022-12-28T04:54:54.828Z,2.91
2022-12-28T04:57:24.826Z,3.21
2022-12-28T04:59:54.856Z,2.86
2022-12-28T05:04:54.875Z,2.91
2022-12-28T05:07:24.917Z,3.07
2022-12-28T05:09:54.948Z,3.48
2022-12-28T05:12:24.990Z,3.14
2022-12-28T05:14:54.974Z,2.89
2022-12-28T05:17:25.015Z,3.06
2022-12-28T05:19:55.024Z,2.9
2022-12-28T05:24:55.062Z,3.5
2022-12-28T05:27:25.100Z,3.13
2022-12-28T05:32:25.151Z,3.63
2022-12-28T05:34:55.169Z,4.17
2022-12-28T05:37:25.211Z,3.85
2022-12-28T05:39:55.232Z,4.46
2022-12-28T05:42:25.241Z,4.95
2022-12-28T05:44:55.277Z,5.79
2022-12-28T05:47:25.307Z,4.57
2022-12-28T05:49:55.307Z,3.96
2022-12-28T05:52:25.316Z,5.08
2022-12-28T05:54:55.368Z,6.24
2022-12-28T05:57:25.388Z,6.1
2022-12-28T05:59:55.415Z,6.09
2022-12-28T06:02:25.448Z,5.88
2022-12-28T06:04:55.447Z,4.58
2022-12-28T06:07:25.484Z,5.28
2022-12-28T06:12:25.528Z,5.52
2022-12-28T06:14:55.559Z,5.18
2022-12-28T06:17:25.572Z,5.07
2022-12-28T06:19:55.630Z,5.78
2022-12-28T06:22:25.619Z,5.26
2022-12-28T06:27:25.668Z,4.74
2022-12-28T06:29:55.713Z,3.88
2022-12-28T06:32:25.703Z,4.72
2022-12-28T06:34:55.785Z,4.6
2022-12-28T06:39:55.786Z,5.2
2022-12-28T06:42:25.809Z,4.44
2022-12-28T06:44:55.853Z,4.74
2022-12-28T06:47:25.850Z,5.25
2022-12-28T06:49:55.922Z,5.26
2022-12-28T06:54:55.924Z,4.17
2022-12-28T06:57:25.954Z,3.61
2022-12-28T07:02:26.269Z,3.97
2022-12-28T07:04:56.033Z,4.35
2022-12-28T07:07:26.051Z,4.51
2022-12-28T07:09:56.057Z,4.11
2022-12-28T07:12:26.094Z,3.91
2022-12-28T07:14:56.125Z,3.65
2022-12-28T07:17:26.153Z,4.31
2022-12-28T07:19:56.168Z,4.13
2022-12-28T07:22:26.199Z,4.27
2022-12-28T07:24:56.230Z,4.37
2022-12-28T07:27:26.248Z,4.46
2022-12-28T07:29:56.262Z,3.91
2022-12-28T07:32:26.306Z,3.78
2022-12-28T07:34:56.302Z,4.02
2022-12-28T07:37:26.329Z,3.91
2022-12-28T07:39:56.357Z,3.81
2022-12-28T07:42:26.408Z,4.47
2022-12-28T07:44:56.402Z,4.88
2022-12-28T07:49:56.471Z,4.15
2022-12-28T07:52:26.495Z,4.3
2022-12-28T07:54:56.478Z,4.73
2022-12-28T07:57:26.533Z,5.1
2022-12-28T07:59:56.535Z,5.18
2022-12-28T08:02:26.657Z,5.37
2022-12-28T08:04:56.644Z,4.91
2022-12-28T08:07:26.613Z,4.91
2022-12-28T08:09:56.645Z,5.15
2022-12-28T08:12:26.666Z,5.19
2022-12-28T08:14:56.718Z,4.84
2022-12-28T08:17:26.719Z,4.33
2022-12-28T08:19:56.736Z,6.13
2022-12-28T08:22:26.742Z,4.49
2022-12-28T08:24:56.803Z,5.1
2022-12-28T08:27:26.817Z,5.69
2022-12-28T08:29:56.824Z,5.86
2022-12-28T08:32:26.830Z,5.37
2022-12-28T08:34:56.869Z,5.84
2022-12-28T08:37:26.917Z,5.72
2022-12-28T08:39:56.905Z,5.47
2022-12-28T08:42:26.939Z,5.07
2022-12-28T08:44:56.976Z,4.08
2022-12-28T08:47:26.990Z,4.15
2022-12-28T08:49:57.028Z,4.14
2022-12-28T08:52:27.045Z,4.02
2022-12-28T08:57:27.084Z,4.37
2022-12-28T08:59:57.153Z,4.88
2022-12-28T09:04:57.154Z,4.1
2022-12-28T09:07:27.175Z,3.94
2022-12-28T09:09:57.247Z,4.51
2022-12-28T09:12:27.237Z,4.16
2022-12-28T09:14:57.260Z,3.39
2022-12-28T09:17:27.265Z,3.45
2022-12-28T09:19:57.297Z,3.47
2022-12-28T09:22:27.333Z,3.36
2022-12-28T09:24:57.386Z,3.39
2022-12-28T09:27:27.374Z,3.24
2022-12-28T09:29:57.407Z,3.02
2022-12-28T09:32:27.425Z,3.56
2022-12-28T09:34:57.436Z,4.28
2022-12-28T09:37:27.452Z,4.7
2022-12-28T09:40:01.341Z,4.9
2022-12-28T09:42:27.514Z,4.18
2022-12-28T09:44:57.533Z,3.95
2022-12-28T09:47:27.580Z,3.59
2022-12-28T09:49:57.579Z,3.82
2022-12-28T09:52:27.607Z,3.74
2022-12-28T09:54:57.656Z,3.87
2022-12-28T09:57:27.653Z,3.97
2022-12-28T09:59:57.679Z,3.44
2022-12-28T10:02:27.896Z,3.1
2022-12-28T10:04:57.723Z,3.35
2022-12-28T10:07:27.737Z,3.16
2022-12-28T10:09:57.768Z,3.03
2022-12-28T10:12:27.795Z,2.82
2022-12-28T10:14:57.841Z,2.91
2022-12-28T10:17:27.864Z,2.83
2022-12-28T10:22:27.882Z,2.67
2022-12-28T10:24:57.918Z,2.69
2022-12-28T10:27:27.931Z,2.99
2022-12-28T10:29:57.956Z,2.84
2022-12-28T10:34:58.005Z,3.18
2022-12-28T10:37:28.039Z,2.93
2022-12-28T10:39:58.050Z,2.72
2022-12-28T10:42:28.064Z,2.59
2022-12-28T10:44:58.111Z,2.37
2022-12-28T10:52:28.173Z,2.46
2022-12-28T10:55:08.177Z,2.89
2022-12-28T10:57:37.887Z,2.65
2022-12-28T11:02:33.009Z,2.59
2022-12-28T11:05:02.823Z,2.79
2022-12-28T11:07:32.864Z,3.16
2022-12-28T11:10:02.855Z,3.02
2022-12-28T11:12:32.894Z,2.92
2022-12-28T11:15:02.920Z,2.87
2022-12-28T11:17:32.941Z,3.21
2022-12-28T11:20:02.959Z,3.05
2022-12-28T11:22:32.983Z,3.09
2022-12-28T11:25:03.010Z,2.57
2022-12-28T11:27:33.023Z,2.32
2022-12-28T11:30:03.076Z,2.05
2022-12-28T11:32:33.116Z,1.88
2022-12-28T11:35:03.117Z,1.68
2022-12-28T11:37:33.125Z,1.72
2022-12-28T11:40:03.173Z,1.75
2022-12-28T11:42:40.715Z,1.48
2022-12-28T11:45:03.226Z,1.48
2022-12-28T11:47:33.476Z,1.44
2022-12-28T11:50:03.243Z,1.23
2022-12-28T11:55:03.296Z,1.34
2022-12-28T11:57:33.299Z,1.18
2022-12-28T12:00:03.317Z,1.29
2022-12-28T12:02:33.398Z,1.37
2022-12-28T12:05:03.480Z,1.39
2022-12-28T12:07:33.404Z,1.38
2022-12-28T12:10:03.429Z,1.45
2022-12-28T12:12:33.469Z,1.27
2022-12-28T12:15:03.475Z,1.16
2022-12-28T12:17:36.892Z,1.2
2022-12-28T12:20:03.539Z,1.56
2022-12-28T12:25:03.594Z,1.37
2022-12-28T12:27:33.648Z,1.41
2022-12-28T12:30:03.608Z,1.71
2022-12-28T12:32:33.648Z,1.73
2022-12-28T12:35:03.664Z,1.6
2022-12-28T12:37:33.705Z,1.41
2022-12-28T12:40:03.738Z,1.61
2022-12-28T12:42:33.787Z,1.45
2022-12-28T12:45:03.762Z,1.39
2022-12-28T12:47:33.797Z,1.61
2022-12-28T12:55:03.854Z,1.73
2022-12-28T12:57:33.877Z,1.65
2022-12-28T13:00:03.970Z,1.69
2022-12-28T13:02:34.106Z,1.95
2022-12-28T13:05:03.969Z,1.9
2022-12-28T13:07:33.974Z,2.12
2022-12-28T13:10:03.995Z,1.86
2022-12-28T13:15:10.669Z,1.71
2022-12-28T13:17:34.078Z,1.74
2022-12-28T13:20:04.101Z,2.36
2022-12-28T13:22:34.106Z,2.33
2022-12-28T13:25:04.235Z,2.25
2022-12-28T13:30:04.206Z,2.06
2022-12-28T13:35:04.251Z,1.86
2022-12-28T13:40:04.282Z,1.89
2022-12-28T13:42:34.312Z,1.9
2022-12-28T13:45:04.350Z,1.7
2022-12-28T13:47:34.361Z,2.25
2022-12-28T13:50:04.373Z,1.94
2022-12-28T13:52:41.412Z,2.03
2022-12-28T13:55:04.444Z,2.03
2022-12-28T13:57:49.046Z,2.06
2022-12-28T14:00:04.453Z,2.27
2022-12-28T14:02:34.529Z,2.29
2022-12-28T14:05:04.691Z,2.13
2022-12-28T14:07:34.570Z,2.2
2022-12-28T14:12:34.595Z,2.39
2022-12-28T14:15:04.619Z,2.18
2022-12-28T14:20:04.682Z,1.97
2022-12-28T14:22:34.737Z,2
2022-12-28T14:25:04.710Z,2.01
2022-12-28T14:27:36.521Z,1.64
2022-12-28T14:30:04.762Z,1.63
2022-12-28T14:37:34.803Z,1.72
2022-12-28T14:40:04.862Z,1.58
2022-12-28T14:42:34.913Z,1.67
2022-12-28T14:45:04.921Z,1.92
2022-12-28T14:47:34.926Z,2.32
2022-12-28T14:50:04.958Z,2.28
2022-12-28T14:52:35.103Z,2.25
2022-12-28T14:55:04.996Z,1.84
2022-12-28T14:57:35.030Z,1.9
2022-12-28T15:02:35.310Z,1.67
2022-12-28T15:05:05.093Z,1.49
2022-12-28T15:07:35.116Z,1.37
2022-12-28T15:10:05.259Z,1.43
2022-12-28T15:12:35.194Z,1.46
2022-12-28T15:15:05.184Z,1.48
2022-12-28T15:17:35.209Z,1.54
2022-12-28T15:20:05.229Z,1.45
2022-12-28T15:22:35.248Z,1.46
2022-12-28T15:25:05.290Z,2.11
2022-12-28T15:30:06.612Z,1.67
2022-12-28T15:32:35.403Z,1.4
2022-12-28T15:35:05.352Z,1.81
2022-12-28T15:37:35.384Z,1.52
2022-12-28T15:40:05.421Z,1.66
2022-12-28T15:42:40.245Z,1.71
2022-12-28T15:52:35.523Z,1.48
2022-12-28T15:55:05.564Z,1.51
2022-12-28T16:02:35.903Z,2.2
2022-12-28T16:05:05.648Z,1.87
2022-12-28T16:12:35.709Z,1.44
2022-12-28T16:17:41.159Z,1.65
2022-12-28T16:20:05.794Z,1.45
2022-12-28T16:25:05.846Z,1.05
2022-12-28T16:27:35.859Z,1.54
2022-12-28T16:30:05.893Z,1.26
2022-12-28T16:32:35.943Z,1.36
2022-12-28T16:37:35.986Z,1.53
2022-12-28T16:42:36.023Z,1.33
2022-12-28T16:45:06.032Z,1.99
2022-12-28T16:47:40.864Z,1.83
2022-12-28T16:50:06.095Z,1.53
2022-12-28T16:52:36.108Z,1.47
2022-12-28T16:55:06.138Z,1.36
2022-12-28T16:57:36.159Z,1.64
2022-12-28T17:00:06.205Z,1.7
2022-12-28T17:02:36.529Z,1.84
2022-12-28T17:05:06.300Z,2.87
2022-12-28T17:07:36.246Z,2.29
2022-12-28T17:10:06.264Z,2.25
2022-12-28T17:12:36.329Z,2.25
2022-12-28T17:15:06.321Z,2.55
2022-12-28T17:17:36.323Z,2.72
2022-12-28T17:20:06.361Z,2.53
2022-12-28T17:22:36.440Z,2.69
2022-12-28T17:25:06.433Z,2.47
2022-12-28T17:27:36.428Z,2.39
2022-12-28T17:30:06.475Z,1.96
2022-12-28T17:32:36.485Z,1.92
2022-12-28T17:35:06.501Z,1.93
2022-12-28T17:37:36.513Z,1.62
2022-12-28T17:40:06.565Z,1.64
2022-12-28T17:45:11.399Z,2.31
2022-12-28T17:47:36.604Z,1.98
2022-12-28T17:50:06.714Z,2.5
2022-12-28T17:52:36.685Z,2.38
2022-12-28T17:55:06.686Z,1.92
2022-12-28T17:57:38.832Z,2.17
2022-12-28T18:00:06.766Z,2.13
2022-12-28T18:02:36.981Z,2.05
2022-12-28T18:05:06.773Z,1.91
2022-12-28T18:07:36.826Z,1.75
2022-12-28T18:10:06.826Z,1.9
2022-12-28T18:12:36.867Z,1.58
2022-12-28T18:15:06.904Z,1.74
2022-12-28T18:17:36.948Z,1.77
2022-12-28T18:20:06.946Z,1.67
2022-12-28T18:22:37.013Z,1.7
2022-12-28T18:25:06.963Z,1.42
2022-12-28T18:27:37.018Z,1.66
2022-12-28T18:30:07.035Z,1.49
2022-12-28T18:35:07.073Z,2.23
2022-12-28T18:37:37.092Z,1.97
2022-12-28T18:40:07.113Z,2.26
2022-12-28T18:42:37.135Z,2.58
2022-12-28T18:45:07.185Z,2.56
2022-12-28T18:47:37.202Z,2.22
2022-12-28T18:50:07.231Z,2.21
2022-12-28T18:52:37.243Z,1.98
2022-12-28T18:55:07.255Z,2.17
2022-12-28T18:57:37.287Z,2.06
2022-12-28T19:02:37.433Z,1.8
2022-12-28T19:05:07.397Z,1.88
2022-12-28T19:07:37.375Z,1.93
2022-12-28T19:10:12.447Z,1.68
2022-12-28T19:12:37.421Z,1.55
2022-12-28T19:15:07.470Z,1.64
2022-12-28T19:17:37.477Z,1.53
2022-12-28T19:20:07.500Z,1.62
2022-12-28T19:22:37.519Z,1.6
2022-12-28T19:25:07.541Z,1.33
2022-12-28T19:27:37.586Z,1.24
2022-12-28T19:30:07.592Z,1.36
2022-12-28T19:32:37.617Z,1.72
2022-12-28T19:35:07.647Z,1.76
2022-12-28T19:37:37.650Z,1.87
2022-12-28T19:40:07.674Z,2.09
2022-12-28T19:42:37.722Z,2.04
2022-12-28T19:45:10.002Z,1.82
2022-12-28T19:47:37.757Z,1.6
2022-12-28T19:50:07.782Z,1.4
2022-12-28T19:52:37.822Z,1.89
2022-12-28T19:55:07.827Z,1.89
2022-12-28T20:00:07.884Z,1.91
2022-12-28T20:02:38.069Z,2.07
2022-12-28T20:05:07.915Z,2.16
2022-12-28T20:07:37.964Z,2.07
2022-12-28T20:10:07.957Z,2.34
2022-12-28T20:12:38.014Z,2.43
2022-12-28T20:15:08.010Z,2.29
2022-12-28T20:17:38.058Z,2.18
2022-12-28T20:20:08.080Z,1.81
2022-12-28T20:22:38.087Z,1.87
2022-12-28T20:25:08.107Z,2.33
2022-12-28T20:27:38.138Z,1.97
2022-12-28T20:30:08.171Z,1.88
2022-12-28T20:32:44.384Z,2.29
2022-12-28T20:35:08.209Z,1.84
2022-12-28T20:37:38.222Z,1.61
2022-12-28T20:40:08.252Z,1.9
2022-12-28T20:42:38.269Z,1.81
2022-12-28T20:45:08.283Z,1.9
2022-12-28T20:47:38.319Z,2.48
2022-12-28T20:50:08.352Z,2.52
2022-12-28T20:52:38.362Z,2.45
2022-12-28T20:55:08.398Z,3.02
2022-12-28T20:57:38.411Z,2.65
2022-12-28T21:05:08.494Z,2.54
2022-12-28T21:07:38.537Z,2.57
2022-12-28T21:10:08.559Z,2.6
2022-12-28T21:12:38.599Z,2.63
2022-12-28T21:15:08.581Z,2.81
2022-12-28T21:20:08.628Z,1.95
2022-12-28T21:22:38.661Z,1.99
2022-12-28T21:25:08.667Z,1.96
2022-12-28T21:30:08.714Z,2.34
2022-12-28T21:32:38.744Z,2.84
2022-12-28T21:35:08.783Z,2.46
2022-12-28T21:37:38.806Z,2.93
2022-12-28T21:40:08.819Z,2.78
2022-12-28T21:45:08.883Z,2.28
2022-12-28T21:47:38.886Z,2.17
2022-12-28T21:50:08.906Z,2.04
2022-12-28T21:52:38.941Z,2.44
2022-12-28T21:57:38.991Z,2.23
2022-12-28T22:00:09.006Z,2.11
2022-12-28T22:05:09.049Z,2.53
2022-12-28T22:10:09.095Z,2.9
2022-12-28T22:12:39.140Z,2.49
2022-12-28T22:15:09.145Z,2.21
2022-12-28T22:17:39.162Z,2.22
2022-12-28T22:22:39.216Z,2.51
2022-12-28T22:25:09.248Z,2.22
2022-12-28T22:27:39.265Z,2.18
2022-12-28T22:30:09.301Z,2.2
2022-12-28T22:32:39.318Z,2.14
2022-12-28T22:35:09.321Z,2.2
2022-12-28T22:37:39.370Z,1.82
2022-12-28T22:40:09.417Z,2.75
2022-12-28T22:45:09.440Z,2.37
2022-12-28T22:47:39.454Z,2.51
2022-12-28T22:50:09.486Z,2.24
2022-12-28T22:52:39.497Z,2.18
2022-12-28T22:55:09.519Z,2.48
2022-12-28T23:02:39.858Z,2.31
2022-12-28T23:05:09.616Z,2.57
2022-12-28T23:07:39.798Z,2.95
2022-12-28T23:12:39.682Z,2.54
2022-12-28T23:15:09.710Z,2.73
2022-12-28T23:17:39.732Z,2.75
2022-12-28T23:22:39.776Z,2.93
2022-12-28T23:25:09.809Z,2.63
2022-12-28T23:27:39.825Z,2.34
2022-12-28T23:35:09.891Z,2.26
2022-12-28T23:37:39.938Z,2.39
2022-12-28T23:40:09.947Z,2.73
2022-12-28T23:45:10.049Z,2.22
2022-12-28T23:50:10.063Z,2.31
2022-12-28T23:55:17.137Z,2.04
2022-12-28T23:57:40.137Z,2.38
